Time;durP1;ratioP1;P1;durP2;ratioP2;P2;SDS_P1;SDS_P2;PMS_P1;PMS_P2;Temp;Humidity;BMP_temperature;BMP_pressure;BME280_temperature;BME280_humidity;BME280_pressure;Samples;Min_cycle;Max_cycle;Signal;HPM_P1;HPM_P2
2021/11/05 00:02:19;;;;;;;24.87;20.95;;;;;;;11.21;96.71;100468.23;1710538;82;21080;-69
2021/11/05 00:04:45;;;;;;;24.35;20.97;;;;;;;11.25;96.56;100464.98;1713828;82;20970;-66
2021/11/05 00:07:11;;;;;;;27.30;23.27;;;;;;;11.25;96.70;100469.50;1709120;82;21529;-68
2021/11/05 00:09:37;;;;;;;29.42;23.98;;;;;;;11.21;96.74;100465.56;1714437;82;21049;-69
2021/11/05 00:12:05;;;;;;;26.68;22.55;;;;;;;11.19;96.86;100460.41;1724658;82;21065;-69
2021/11/05 00:14:30;;;;;;;28.62;22.48;;;;;;;11.20;97.25;100453.23;1718873;82;21024;-67
2021/11/05 00:16:57;;;;;;;24.95;21.15;;;;;;;11.16;97.37;100452.77;1711198;82;21093;-66
2021/11/05 00:19:23;;;;;;;25.35;21.87;;;;;;;11.19;97.29;100445.73;1712607;82;21063;-69
2021/11/05 00:21:49;;;;;;;25.20;21.25;;;;;;;11.22;97.44;100444.00;1715895;82;20981;-69
2021/11/05 00:24:15;;;;;;;26.45;22.07;;;;;;;11.23;97.30;100433.66;1699222;82;21043;-66
2021/11/05 00:26:41;;;;;;;22.75;18.98;;;;;;;11.26;97.12;100438.63;1688762;84;21554;-68
2021/11/05 00:29:08;;;;;;;25.68;21.15;;;;;;;11.29;97.05;100428.89;1689081;84;21864;-67
2021/11/05 00:31:35;;;;;;;27.53;21.53;;;;;;;11.33;96.88;100423.19;1697004;84;21093;-68
2021/11/05 00:34:01;;;;;;;21.97;19.23;;;;;;;11.30;97.32;100419.03;1698990;83;21625;-66
2021/11/05 00:36:29;;;;;;;27.17;23.27;;;;;;;11.29;97.13;100416.06;1691891;84;21046;-68
2021/11/05 00:38:55;;;;;;;24.67;22.02;;;;;;;11.31;97.06;100410.03;1700643;83;21014;-66
2021/11/05 00:41:21;;;;;;;;;;;;;;;11.35;97.08;100409.95;1704528;83;21034;-67
2021/11/05 00:43:47;;;;;;;27.55;22.17;;;;;;;11.34;97.11;100413.66;1695273;84;20142;-67
2021/11/05 00:46:14;;;;;;;25.48;20.75;;;;;;;11.26;97.65;100415.10;1694817;84;21065;-67
2021/11/05 00:48:42;;;;;;;26.90;22.10;;;;;;;11.27;97.62;100422.11;1700402;84;21106;-67
2021/11/05 00:51:08;;;;;;;28.80;25.72;;;;;;;11.26;98.03;100443.97;1701954;84;21034;-66
2021/11/05 00:53:34;;;;;;;30.95;26.95;;;;;;;11.30;97.95;100441.23;1697890;83;22592;-68
2021/11/05 00:56:01;;;;;;;33.63;30.00;;;;;;;11.34;97.83;100441.68;1702766;83;20991;-66
2021/11/05 00:58:27;;;;;;;37.25;30.25;;;;;;;11.36;97.86;100434.30;1705243;82;21534;-68
2021/11/05 01:00:53;;;;;;;30.82;24.45;;;;;;;11.38;97.75;100440.28;1685033;84;21046;-68
2021/11/05 01:03:19;;;;;;;31.23;26.23;;;;;;;11.41;97.71;100431.87;1692451;84;21057;-67
2021/11/05 01:05:45;;;;;;;29.10;23.20;;;;;;;11.41;97.65;100435.05;1693109;83;20999;-67
2021/11/05 01:08:12;;;;;;;;;;;;;;;11.42;97.60;100436.20;1709391;82;21049;-67
2021/11/05 01:10:39;;;;;;;24.35;21.55;;;;;;;11.42;97.79;100446.06;1709397;82;20485;-66
2021/11/05 01:13:07;;;;;;;;;;;;;;;11.41;97.89;100439.88;1665957;84;20996;-67
2021/11/05 01:15:34;;;;;;;27.23;21.67;;;;;;;11.41;97.95;100441.20;1723268;82;20446;-66
2021/11/05 01:18:01;;;;;;;24.43;21.83;;;;;;;11.43;98.04;100441.02;1723749;83;21063;-65
2021/11/05 01:20:29;;;;;;;21.97;18.48;;;;;;;11.46;97.93;100430.80;1719843;83;21553;-67
2021/11/05 01:22:55;;;;;;;30.40;22.98;;;;;;;11.49;97.83;100430.42;1716709;82;21041;-67
2021/11/05 01:25:21;;;;;;;27.50;22.15;;;;;;;11.53;97.62;100420.67;1713974;82;21053;-66
2021/11/05 01:27:48;;;;;;;24.80;19.92;;;;;;;11.57;97.54;100421.97;1718630;82;21013;-68
2021/11/05 01:30:16;;;;;;;30.10;22.67;;;;;;;11.61;97.54;100417.37;1711293;83;21045;-68
2021/11/05 01:32:43;;;;;;;27.25;21.50;;;;;;;11.61;97.30;100417.89;1719062;82;21481;-66
2021/11/05 01:35:11;;;;;;;28.90;21.90;;;;;;;11.63;97.17;100410.51;1715487;83;21014;-66
2021/11/05 01:37:37;;;;;;;27.95;24.85;;;;;;;11.65;97.15;100419.15;1725206;82;21514;-67
2021/11/05 01:40:06;;;;;;;29.37;23.85;;;;;;;11.65;97.11;100417.81;1708363;82;21020;-66
2021/11/05 01:42:37;;;;;;;27.02;22.85;;;;;;;11.62;97.17;100411.02;1728112;82;21396;-66
2021/11/05 01:45:07;;;;;;;27.45;23.57;;;;;;;11.61;97.04;100405.36;1703897;83;21143;-67
2021/11/05 01:47:38;;;;;;;27.75;23.62;;;;;;;11.60;97.23;100409.55;1704888;83;21498;-67
2021/11/05 01:50:08;;;;;;;31.12;23.35;;;;;;;11.59;97.28;100414.06;1724929;82;20982;-66
2021/11/05 01:52:34;;;;;;;27.48;22.35;;;;;;;11.59;97.43;100414.59;1715962;82;21510;-65
2021/11/05 01:55:00;;;;;;;27.07;22.32;;;;;;;11.63;97.32;100418.52;1718399;81;21037;-69
2021/11/05 01:57:26;;;;;;;;;;;;;;;11.65;97.37;100421.81;1724429;82;21021;-70
2021/11/05 01:59:53;;;;;;;30.97;22.00;;;;;;;11.67;97.29;100417.92;1725608;82;20169;-67
2021/11/05 02:02:20;;;;;;;29.32;24.05;;;;;;;11.64;97.54;100424.16;1726046;82;21025;-66
2021/11/05 02:04:48;;;;;;;26.55;21.82;;;;;;;11.63;97.61;100426.01;1725667;82;20967;-67
2021/11/05 02:07:16;;;;;;;26.60;21.05;;;;;;;11.65;97.70;100425.30;1725840;82;21034;-67
2021/11/05 02:09:45;;;;;;;25.97;22.65;;;;;;;11.69;97.56;100425.23;1723009;82;21066;-66
2021/11/05 02:12:12;;;;;;;25.50;22.75;;;;;;;11.70;97.66;100432.75;1722924;82;21030;-69
2021/11/05 02:14:42;;;;;;;23.90;21.05;;;;;;;11.71;97.74;100425.04;1718625;83;21491;-66
2021/11/05 02:17:08;;;;;;;21.33;19.10;;;;;;;11.76;97.67;100419.95;1724816;82;21122;-67
2021/11/05 02:19:36;;;;;;;22.77;20.40;;;;;;;11.78;97.57;100409.90;1723525;82;21089;-68
2021/11/05 02:22:04;;;;;;;23.30;20.52;;;;;;;11.74;97.82;100408.64;1726095;82;21005;-67
2021/11/05 02:24:31;;;;;;;23.15;20.35;;;;;;;11.79;97.67;100404.04;1722995;82;21026;-67
2021/11/05 02:26:58;;;;;;;24.52;21.25;;;;;;;11.82;97.61;100408.48;1719837;83;21090;-67
2021/11/05 02:29:31;;;;;;;27.05;20.95;;;;;;;11.87;97.44;100415.41;1726133;81;21015;-67
2021/11/05 02:31:57;;;;;;;26.05;19.17;;;;;;;11.94;97.35;100412.83;1717151;82;21024;-67
2021/11/05 02:34:23;;;;;;;23.73;19.23;;;;;;;12.04;97.29;100412.48;1704220;82;21085;-68
2021/11/05 02:36:50;;;;;;;25.77;20.65;;;;;;;12.05;96.85;100413.63;1667689;83;21121;-67
2021/11/05 02:39:16;;;;;;;24.50;21.10;;;;;;;12.08;96.67;100417.73;1673463;83;21057;-66
2021/11/05 02:41:46;;;;;;;27.48;21.80;;;;;;;12.10;96.68;100418.36;1678428;83;21024;-66
2021/11/05 02:44:12;;;;;;;25.65;21.70;;;;;;;12.11;96.66;100422.70;1672175;83;21017;-68
2021/11/05 02:46:39;;;;;;;26.00;22.07;;;;;;;12.12;96.44;100425.67;1702480;82;21045;-65
2021/11/05 02:49:07;;;;;;;25.20;21.30;;;;;;;12.12;96.28;100429.67;1680544;85;21853;-67
2021/11/05 02:51:37;;;;;;;22.32;19.95;;;;;;;12.14;96.31;100429.48;1681916;83;21133;-66
2021/11/05 02:54:04;;;;;;;21.48;19.12;;;;;;;12.15;96.31;100434.64;1691572;83;21022;-67
2021/11/05 02:56:31;;;;;;;22.58;19.60;;;;;;;12.20;96.35;100426.02;1697061;82;21009;-68
2021/11/05 02:58:58;;;;;;;22.05;19.62;;;;;;;12.24;96.45;100422.77;1694360;83;21497;-67
2021/11/05 03:01:27;;;;;;;24.47;20.45;;;;;;;12.27;96.52;100426.89;1712322;82;21019;-66
2021/11/05 03:04:00;;;;;;;21.95;19.67;;;;;;;12.31;96.21;100422.80;1721919;81;21120;-68
2021/11/05 03:06:30;;;;;;;23.57;19.17;;;;;;;12.35;96.09;100418.70;1738046;80;21030;-66
2021/11/05 03:08:56;;;;;;;23.57;18.37;;;;;;;12.34;96.06;100420.23;1744972;80;21011;-68
2021/11/05 03:11:23;;;;;;;22.35;18.10;;;;;;;12.34;96.07;100417.55;1752965;80;21230;-67
2021/11/05 03:13:49;;;;;;;23.00;19.07;;;;;;;12.37;96.07;100427.34;1752464;80;21538;-70
2021/11/05 03:16:16;;;;;;;19.40;16.90;;;;;;;12.39;96.08;100412.45;1712509;82;21070;-67
2021/11/05 03:18:42;;;;;;;20.77;18.40;;;;;;;12.42;96.12;100419.56;1750157;80;20997;-66
2021/11/05 03:21:09;;;;;;;20.95;18.50;;;;;;;12.43;95.97;100422.56;1746680;80;21076;-68
2021/11/05 03:23:36;;;;;;;20.55;18.05;;;;;;;12.44;95.90;100413.50;1766555;80;21463;-67
2021/11/05 03:26:03;;;;;;;22.80;17.75;;;;;;;12.40;96.28;100407.42;1742037;80;20973;-67
2021/11/05 03:28:29;;;;;;;19.98;15.70;;;;;;;12.42;96.21;100412.06;1745450;80;21099;-68
2021/11/05 03:30:55;;;;;;;21.68;18.62;;;;;;;12.45;96.36;100406.30;1753362;80;21137;-67
2021/11/05 03:33:21;;;;;;;20.25;17.42;;;;;;;12.46;96.32;100394.59;1744811;80;21016;-67
2021/11/05 03:35:47;;;;;;;;;;;;;;;12.50;96.40;100391.83;1703756;82;21026;-67
2021/11/05 03:38:13;;;;;;;17.95;16.10;;;;;;;12.51;96.47;100397.50;1701442;82;20437;-68
2021/11/05 03:40:39;;;;;;;16.07;14.43;;;;;;;12.49;96.69;100388.86;1703972;82;21010;-67
2021/11/05 03:43:05;;;;;;;;;;;;;;;12.50;96.95;100393.17;1727104;82;21435;-67
2021/11/05 03:45:32;;;;;;;19.12;17.20;;;;;;;12.53;96.84;100391.44;1727760;81;20140;-67
2021/11/05 03:47:59;;;;;;;19.27;16.00;;;;;;;12.52;97.07;100399.14;1725416;81;21007;-67
2021/11/05 03:50:25;;;;;;;18.82;16.77;;;;;;;12.55;97.39;100397.94;1721312;81;21077;-67
2021/11/05 03:52:52;;;;;;;19.55;16.42;;;;;;;12.56;97.15;100392.36;1722232;81;21022;-69
2021/11/05 03:55:18;;;;;;;19.75;15.75;;;;;;;12.60;97.02;100408.83;1724223;81;20987;-66
2021/11/05 03:57:52;;;;;;;15.98;14.28;;;;;;;12.59;97.33;100406.67;1721117;82;21047;-68
2021/11/05 04:00:20;;;;;;;19.48;16.30;;;;;;;12.61;97.45;100409.16;1723889;82;21070;-70
2021/11/05 04:02:47;;;;;;;15.83;13.98;;;;;;;12.63;97.51;100401.23;1723513;81;21090;-67
2021/11/05 04:05:14;;;;;;;16.82;14.65;;;;;;;12.63;97.76;100401.23;1707285;81;21069;-70
2021/11/05 04:07:42;;;;;;;15.03;13.55;;;;;;;12.66;97.77;100408.88;1719879;81;21145;-67
2021/11/05 04:10:09;;;;;;;16.10;14.50;;;;;;;12.70;97.67;100406.63;1718208;82;20995;-66
2021/11/05 04:12:36;;;;;;;21.82;14.93;;;;;;;12.72;97.65;100403.75;1696322;82;21052;-66
2021/11/05 04:15:06;;;;;;;18.15;15.20;;;;;;;12.74;97.80;100407.87;1760361;80;21006;-67
2021/11/05 04:17:32;;;;;;;21.40;16.55;;;;;;;12.73;98.14;100407.54;1745241;80;21040;-66
2021/11/05 04:19:58;;;;;;;16.80;14.95;;;;;;;12.77;97.96;100414.16;1752709;80;21018;-66
2021/11/05 04:22:24;;;;;;;18.82;15.48;;;;;;;12.80;97.79;100412.41;1708879;82;21556;-68
2021/11/05 04:24:50;;;;;;;17.32;15.05;;;;;;;12.82;97.86;100417.56;1730334;82;21003;-66
2021/11/05 04:27:17;;;;;;;20.02;14.63;;;;;;;12.80;97.82;100411.06;1707293;82;21022;-66
2021/11/05 04:29:43;;;;;;;19.35;15.08;;;;;;;12.83;97.99;100415.20;1689784;82;21116;-66
2021/11/05 04:32:09;;;;;;;16.30;14.63;;;;;;;12.87;97.86;100417.79;1717657;82;21552;-66
2021/11/05 04:34:36;;;;;;;18.12;15.03;;;;;;;12.89;97.75;100414.39;1728365;80;21096;-65
2021/11/05 04:37:02;;;;;;;20.08;15.13;;;;;;;12.93;97.77;100406.80;1714806;82;21053;-66
2021/11/05 04:39:29;;;;;;;20.12;15.85;;;;;;;12.93;97.75;100407.61;1687563;83;22241;-66
2021/11/05 04:41:55;;;;;;;18.60;15.88;;;;;;;12.95;97.60;100400.20;1703173;82;21014;-67
2021/11/05 04:44:22;;;;;;;;;;;;;;;12.97;97.52;100406.17;1719935;82;21142;-66
2021/11/05 04:46:50;;;;;;;18.75;15.48;;;;;;;12.96;97.51;100397.85;1701584;82;20141;-68
2021/11/05 04:49:16;;;;;;;18.30;16.07;;;;;;;12.92;97.87;100401.12;1673069;84;21129;-67
2021/11/05 04:51:44;;;;;;;19.82;17.35;;;;;;;12.91;98.20;100395.47;1700338;82;21124;-67
2021/11/05 04:54:10;;;;;;;18.25;15.15;;;;;;;12.95;98.01;100400.20;1706351;82;21010;-68
2021/11/05 04:56:37;;;;;;;20.40;16.23;;;;;;;12.98;97.94;100401.14;1715987;82;21501;-67
2021/11/05 04:59:03;;;;;;;;;;;;;;;13.01;97.75;100398.05;1721091;82;21030;-67
2021/11/05 05:01:31;;;;;;;16.67;14.93;;;;;;;13.03;97.70;100400.52;1724059;82;20209;-68
2021/11/05 05:03:57;;;;;;;21.82;15.78;;;;;;;12.97;97.83;100394.13;1721303;82;21018;-67
2021/11/05 05:06:24;;;;;;;17.25;13.83;;;;;;;13.03;97.66;100400.52;1713752;82;21067;-67
2021/11/05 05:08:50;;;;;;;19.42;16.48;;;;;;;13.06;97.74;100401.47;1721129;82;21069;-67
2021/11/05 05:11:16;;;;;;;19.62;16.25;;;;;;;13.10;97.68;100405.91;1718591;82;21102;-69
2021/11/05 05:13:43;;;;;;;20.45;16.70;;;;;;;13.13;97.48;100414.35;1747132;80;21691;-70
2021/11/05 05:16:10;;;;;;;17.75;15.05;;;;;;;13.16;97.34;100418.47;1734449;80;21531;-69
2021/11/05 05:18:37;;;;;;;19.70;15.25;;;;;;;13.20;97.04;100411.18;1723814;82;21122;-67
2021/11/05 05:21:04;;;;;;;19.00;15.93;;;;;;;13.22;96.90;100407.78;1721565;81;20974;-67
2021/11/05 05:23:30;;;;;;;;;;;;;;;13.24;96.82;100410.23;1733926;81;21085;-73
2021/11/05 05:25:56;;;;;;;24.70;16.45;;;;;;;13.24;96.79;100415.58;1724873;81;20177;-70
2021/11/05 05:28:22;;;;;;;22.75;16.23;;;;;;;13.22;96.88;100417.16;1725662;82;21002;-66
2021/11/05 05:30:49;;;;;;;18.42;15.18;;;;;;;13.25;96.81;100406.02;1725846;82;21041;-68
2021/11/05 05:33:15;;;;;;;19.12;16.27;;;;;;;13.25;96.75;100398.51;1723908;81;21558;-67
2021/11/05 05:35:41;;;;;;;21.55;15.88;;;;;;;13.29;96.57;100402.95;1726490;82;21003;-67
2021/11/05 05:38:07;;;;;;;17.60;15.32;;;;;;;13.31;96.51;100405.75;1718765;81;21062;-65
2021/11/05 05:40:33;;;;;;;20.62;16.48;;;;;;;13.35;96.45;100405.64;1725741;81;21041;-69
2021/11/05 05:42:59;;;;;;;23.45;17.80;;;;;;;13.34;96.33;100418.73;1724763;81;21164;-66
2021/11/05 05:45:26;;;;;;;20.52;15.95;;;;;;;13.36;96.33;100411.31;1726467;81;21069;-69
2021/11/05 05:47:52;;;;;;;17.62;14.40;;;;;;;13.37;96.25;100400.94;1726178;81;21551;-67
2021/11/05 05:50:19;;;;;;;19.20;15.48;;;;;;;13.41;96.07;100414.21;1723844;81;21447;-68
2021/11/05 05:52:46;;;;;;;21.10;17.25;;;;;;;13.42;96.02;100424.40;1727315;81;21026;-68
2021/11/05 05:55:14;;;;;;;20.00;15.03;;;;;;;13.46;95.85;100427.50;1726432;81;21033;-71
2021/11/05 05:57:42;;;;;;;18.70;16.42;;;;;;;13.48;95.71;100426.77;1722332;82;20979;-68
2021/11/05 06:00:14;;;;;;;23.45;16.85;;;;;;;13.50;95.71;100432.22;1729725;81;20997;-70
2021/11/05 06:02:41;;;;;;;18.95;15.72;;;;;;;13.52;95.33;100437.37;1674485;84;21057;-67
2021/11/05 06:05:08;;;;;;;19.62;15.72;;;;;;;13.56;95.14;100438.61;1709742;81;21057;-66
2021/11/05 06:07:34;;;;;;;26.62;17.30;;;;;;;13.57;95.15;100430.37;1724416;82;21058;-68
2021/11/05 06:10:01;;;;;;;;;;;;;;;13.60;95.06;100437.20;1725010;81;21123;-67
2021/11/05 06:12:28;;;;;;;19.05;14.75;;;;;;;13.60;94.98;100446.57;1719479;81;20168;-68
2021/11/05 06:14:55;;;;;;;19.10;15.58;;;;;;;13.64;95.07;100453.16;1719181;81;21093;-67
2021/11/05 06:17:23;;;;;;;18.92;15.98;;;;;;;13.69;94.79;100455.20;1729395;81;21014;-69
2021/11/05 06:19:50;;;;;;;19.30;16.05;;;;;;;13.73;94.40;100453.27;1718341;81;21103;-66
2021/11/05 06:22:18;;;;;;;20.75;16.60;;;;;;;13.72;94.20;100452.12;1726473;81;21600;-74
2021/11/05 06:24:45;;;;;;;20.50;16.12;;;;;;;13.72;94.13;100453.47;1704700;81;21240;-67
2021/11/05 06:27:13;;;;;;;18.07;15.13;;;;;;;13.75;93.99;100456.56;1719787;82;21607;-68
2021/11/05 06:29:39;;;;;;;;;;;;;;;13.76;93.91;100462.20;1719925;81;21025;-71
2021/11/05 06:32:06;;;;;;;19.27;15.35;;;;;;;13.73;93.94;100455.94;1708753;81;20502;-69
2021/11/05 06:34:33;;;;;;;21.15;16.67;;;;;;;13.72;93.99;100453.47;1708383;81;21085;-71
2021/11/05 06:36:59;;;;;;;;;;;;;;;13.73;93.92;100452.42;1706704;81;21087;-70
2021/11/05 06:39:25;;;;;;;19.85;16.60;;;;;;;13.76;93.78;100445.32;1725320;81;20120;-68
2021/11/05 06:41:52;;;;;;;;;;;;;;;13.69;94.03;100443.97;1728462;82;21022;-68
2021/11/05 06:44:18;;;;;;;24.32;16.97;;;;;;;13.69;94.17;100437.27;1727208;81;20191;-68
2021/11/05 06:46:45;;;;;;;21.77;17.52;;;;;;;13.72;94.07;100441.41;1715457;81;21607;-66
2021/11/05 06:49:11;;;;;;;19.52;16.40;;;;;;;13.75;94.03;100442.31;1708566;83;21034;-67
2021/11/05 06:51:39;;;;;;;22.00;15.88;;;;;;;13.79;93.88;100440.37;1722990;82;21623;-67
2021/11/05 06:54:06;;;;;;;23.15;18.02;;;;;;;13.81;93.72;100432.95;1722467;81;21065;-68
2021/11/05 06:56:32;;;;;;;24.63;17.55;;;;;;;13.89;93.49;100427.08;1715864;81;21073;-68
2021/11/05 06:59:01;;;;;;;26.02;16.20;;;;;;;13.88;93.38;100426.75;1720350;82;21082;-68
2021/11/05 07:01:27;;;;;;;21.25;17.02;;;;;;;13.90;93.34;100431.39;1701745;81;21026;-69
2021/11/05 07:03:54;;;;;;;22.42;16.87;;;;;;;13.95;93.23;100433.75;1690295;83;21548;-68
2021/11/05 07:06:21;;;;;;;;;;;;;;;14.01;92.96;100430.75;1692721;83;21042;-68
2021/11/05 07:08:51;;;;;;;22.58;17.52;;;;;;;14.06;92.73;100424.27;1716654;82;20190;-69
2021/11/05 07:11:17;;;;;;;22.45;17.10;;;;;;;14.03;92.80;100438.06;1709066;82;21067;-66
2021/11/05 07:13:44;;;;;;;22.48;17.17;;;;;;;14.09;92.72;100434.58;1688423;83;21513;-68
2021/11/05 07:16:10;;;;;;;24.12;16.70;;;;;;;14.18;92.26;100442.70;1720968;82;21054;-67
2021/11/05 07:18:38;;;;;;;19.98;16.45;;;;;;;14.25;91.90;100449.91;1712793;82;21014;-70
2021/11/05 07:21:04;;;;;;;24.07;17.37;;;;;;;14.28;91.57;100454.83;1714207;82;21060;-68
2021/11/05 07:23:32;;;;;;;;;;;;;;;14.29;91.34;100451.13;1721420;81;21022;-70
2021/11/05 07:26:02;;;;;;;24.80;18.00;;;;;;;14.32;91.27;100448.03;1689902;83;20186;-69
2021/11/05 07:28:29;;;;;;;26.50;17.92;;;;;;;14.31;91.33;100455.76;1687022;83;21050;-68
2021/11/05 07:30:56;;;;;;;;;;;;;;;14.30;91.35;100454.13;1705046;83;21050;-69
2021/11/05 07:33:23;;;;;;;22.95;15.98;;;;;;;14.33;91.26;100463.89;1703578;82;20148;-69
2021/11/05 07:35:49;;;;;;;23.45;17.02;;;;;;;14.33;91.24;100463.07;1704475;82;21114;-71
2021/11/05 07:38:15;;;;;;;27.10;17.15;;;;;;;14.35;91.00;100448.94;1716074;82;21122;-69
2021/11/05 07:40:42;;;;;;;19.73;16.42;;;;;;;14.39;90.95;100451.50;1712767;82;21497;-68
2021/11/05 07:43:08;;;;;;;22.90;16.70;;;;;;;14.44;90.84;100450.36;1718749;82;21061;-68
2021/11/05 07:45:35;;;;;;;26.93;18.27;;;;;;;14.48;90.72;100454.26;1713740;82;21082;-69
2021/11/05 07:50:17;;;;;;;27.05;19.35;;;;;;;14.57;90.19;100466.44;1802039;79;22767;-69
2021/11/05 07:52:45;;;;;;;22.77;17.77;;;;;;;14.47;90.17;100456.66;1777339;78;20999;-69
2021/11/05 07:55:12;;;;;;;28.38;19.55;;;;;;;14.46;90.43;100464.91;1775486;78;21001;-69
2021/11/05 07:57:39;;;;;;;23.90;18.57;;;;;;;14.49;90.38;100466.65;1743130;80;21550;-69
2021/11/05 08:00:10;;;;;;;25.75;19.55;;;;;;;14.51;90.30;100474.48;1769537;80;21003;-70
2021/11/05 08:02:38;;;;;;;25.40;17.92;;;;;;;14.53;90.22;100481.28;1697913;83;21005;-71
2021/11/05 08:05:08;;;;;;;21.65;17.60;;;;;;;14.56;90.21;100477.34;1667817;84;21087;-69
2021/11/05 08:07:34;;;;;;;27.70;19.73;;;;;;;14.60;90.07;100478.09;1669220;84;21015;-70
2021/11/05 08:10:01;;;;;;;23.45;18.82;;;;;;;14.62;89.83;100478.39;1674627;84;21054;-68
2021/11/05 08:12:27;;;;;;;25.25;17.67;;;;;;;14.63;89.71;100473.34;1652098;84;21093;-70
2021/11/05 08:14:53;;;;;;;23.77;17.77;;;;;;;14.62;89.86;100478.39;1665097;84;21057;-70
2021/11/05 08:17:19;;;;;;;26.55;18.87;;;;;;;14.62;89.79;100488.62;1640637;86;21026;-73
2021/11/05 08:19:45;;;;;;;34.67;19.95;;;;;;;14.65;89.78;100492.73;1641441;86;21538;-69
2021/11/05 08:22:11;;;;;;;23.00;17.15;;;;;;;14.68;89.61;100495.00;1663269;84;21100;-68
2021/11/05 08:24:37;;;;;;;;;;;;;;;14.71;89.49;100520.89;1643856;86;21601;-70
2021/11/05 08:27:04;;;;;;;29.37;20.00;;;;;;;14.72;89.29;100515.81;1652910;85;20460;-69
2021/11/05 08:29:30;;;;;;;33.60;21.20;;;;;;;14.71;89.30;100511.50;1653244;85;21557;-72
2021/11/05 08:31:56;;;;;;;32.58;20.52;;;;;;;14.73;89.37;100512.11;1652805;85;21088;-70
2021/11/05 08:34:22;;;;;;;30.12;21.07;;;;;;;14.76;89.13;100514.87;1657644;85;21055;-69
2021/11/05 08:36:48;;;;;;;31.17;19.67;;;;;;;14.79;89.05;100512.59;1659023;85;21033;-70
2021/11/05 08:39:14;;;;;;;31.27;21.15;;;;;;;14.85;88.92;100506.09;1629963;86;21051;-69
2021/11/05 08:41:40;;;;;;;24.20;19.25;;;;;;;14.87;88.60;100504.83;1655725;85;21617;-71
2021/11/05 08:44:07;;;;;;;;;;;;;;;14.89;88.45;100498.73;1656164;85;21154;-70
2021/11/05 08:46:34;;;;;;;29.90;21.00;;;;;;;14.94;88.38;100484.16;1674675;84;20186;-71
2021/11/05 08:49:06;;;;;;;35.63;22.37;;;;;;;14.96;88.54;100480.73;1639945;86;21561;-71
2021/11/05 08:51:33;;;;;;;31.25;22.70;;;;;;;15.02;88.11;100475.56;1624856;87;21615;-73
2021/11/05 08:53:59;;;;;;;27.48;21.20;;;;;;;15.02;87.78;100474.22;1670729;84;21552;-72
2021/11/05 08:56:25;;;;;;;33.30;22.65;;;;;;;15.01;87.48;100472.56;1667121;84;21509;-70
2021/11/05 08:58:51;;;;;;;30.62;22.25;;;;;;;14.98;87.51;100462.56;1658298;85;21021;-70
2021/11/05 09:01:18;;;;;;;;;;;;;;;14.94;87.64;100462.69;1648245;85;21098;-71
2021/11/05 09:03:44;;;;;;;31.23;21.82;;;;;;;14.97;87.69;100463.61;1626391;86;20510;-71
2021/11/05 09:06:11;;;;;;;31.45;20.85;;;;;;;14.98;87.97;100473.82;1623629;86;21092;-68
2021/11/05 09:08:37;;;;;;;28.02;22.30;;;;;;;15.05;87.86;100461.69;1624657;86;21110;-69
2021/11/05 09:11:06;;;;;;;24.95;20.85;;;;;;;15.10;87.57;100456.51;1632392;86;21055;-71
2021/11/05 09:13:34;;;;;;;28.77;21.30;;;;;;;15.16;87.33;100455.64;1643187;85;21135;-68
2021/11/05 09:16:03;;;;;;;26.87;20.17;;;;;;;15.22;87.10;100454.80;1644040;86;21062;-71
2021/11/05 09:18:30;;;;;;;27.22;22.05;;;;;;;15.31;86.97;100457.53;1644240;86;21254;-69
2021/11/05 09:20:57;;;;;;;29.63;22.52;;;;;;;15.38;86.14;100473.06;1644852;86;21601;-70
2021/11/05 09:23:24;;;;;;;29.25;21.93;;;;;;;15.43;85.94;100475.11;1651844;84;21025;-71
2021/11/05 09:25:52;;;;;;;26.07;18.98;;;;;;;15.49;85.67;100474.23;1655327;85;20994;-70
2021/11/05 09:28:17;;;;;;;27.27;21.73;;;;;;;15.57;85.44;100467.77;1649683;85;21131;-69
2021/11/05 09:30:45;;;;;;;37.98;23.80;;;;;;;15.56;85.05;100473.67;1653516;85;21068;-71
2021/11/05 09:33:11;;;;;;;30.48;21.55;;;;;;;15.54;85.24;100470.91;1661584;84;20969;-69
2021/11/05 09:35:38;;;;;;;26.50;22.67;;;;;;;15.60;85.03;100463.84;1681333;83;21045;-70
2021/11/05 09:38:05;;;;;;;27.65;21.37;;;;;;;15.64;84.78;100452.95;1686512;83;21580;-68
2021/11/05 09:40:31;;;;;;;36.00;22.42;;;;;;;15.64;84.64;100459.14;1662512;85;21538;-69
2021/11/05 09:42:58;;;;;;;27.00;22.07;;;;;;;15.66;84.58;100459.75;1654863;85;21473;-69
2021/11/05 09:45:30;;;;;;;31.77;23.27;;;;;;;15.70;84.59;100451.55;1647263;83;21098;-70
2021/11/05 09:47:55;;;;;;;41.58;24.70;;;;;;;15.75;84.46;100448.25;1631211;86;21121;-70
2021/11/05 09:50:23;;;;;;;29.90;21.15;;;;;;;15.79;84.18;100455.35;1654122;85;21128;-68
2021/11/05 09:52:50;;;;;;;29.05;22.25;;;;;;;15.82;83.96;100451.67;1654845;85;21156;-69
2021/11/05 09:55:19;;;;;;;34.10;23.95;;;;;;;15.82;83.68;100444.14;1668411;84;21600;-70
2021/11/05 09:57:45;;;;;;;33.02;24.32;;;;;;;15.88;83.94;100439.22;1678029;84;21068;-71
2021/11/05 10:00:16;;;;;;;28.47;21.68;;;;;;;15.89;83.96;100443.56;1676295;84;20992;-70
2021/11/05 10:02:46;;;;;;;29.90;23.60;;;;;;;15.95;83.92;100429.23;1662817;84;21034;-71
2021/11/05 10:05:13;;;;;;;25.65;22.80;;;;;;;16.01;83.00;100414.08;1678159;84;21141;-71
2021/11/05 10:07:56;;;;;;;25.65;20.88;;;;;;;16.07;83.06;100409.19;1647845;84;21088;-70
2021/11/05 10:10:36;;;;;;;25.95;22.05;;;;;;;16.13;82.30;100411.78;1678058;84;21070;-69
2021/11/05 10:13:08;;;;;;;27.10;21.52;;;;;;;16.21;82.38;100417.39;1669545;84;20996;-73
2021/11/05 10:15:48;;;;;;;26.50;22.82;;;;;;;16.30;82.24;100426.00;1675040;84;21113;-68
2021/11/05 10:18:27;;;;;;;24.82;21.65;;;;;;;16.34;81.51;100421.81;1666707;84;21092;-70
2021/11/05 10:21:13;;;;;;;22.73;20.30;;;;;;;16.34;81.16;100421.81;1672881;84;21153;-70
2021/11/05 10:23:44;;;;;;;27.83;20.33;;;;;;;16.32;80.87;100426.06;1678127;84;21487;-70
2021/11/05 10:26:32;;;;;;;23.55;21.02;;;;;;;16.35;80.76;100436.38;1677705;84;21036;-70
2021/11/05 10:28:59;;;;;;;27.70;21.15;;;;;;;16.38;80.78;100432.94;1641645;85;20995;-70
2021/11/05 10:31:28;;;;;;;24.95;19.60;;;;;;;16.40;80.53;100438.92;1668571;83;21024;-68
2021/11/05 10:33:54;;;;;;;29.12;22.45;;;;;;;16.43;80.38;100435.79;1662494;85;21485;-69
2021/11/05 10:36:25;;;;;;;24.25;19.25;;;;;;;16.45;80.05;100439.08;1677962;84;21628;-74
2021/11/05 10:39:00;;;;;;;24.63;19.87;;;;;;;16.45;80.05;100439.08;1657383;85;21017;-68
2021/11/05 10:41:31;;;;;;;23.50;19.23;;;;;;;16.50;79.52;100433.31;1661957;84;21129;-69
2021/11/05 10:44:00;;;;;;;22.90;20.12;;;;;;;16.43;79.31;100412.39;1660908;84;21472;-68
2021/11/05 10:46:36;;;;;;;22.42;18.23;;;;;;;16.43;79.31;100412.39;1677796;84;21089;-67
2021/11/05 10:49:07;;;;;;;22.15;19.80;;;;;;;16.39;79.68;100412.55;1642566;85;21116;-70
2021/11/05 10:51:36;;;;;;;22.22;18.87;;;;;;;16.31;79.86;100407.45;1691875;83;21060;-69
2021/11/05 10:54:03;;;;;;;22.75;18.30;;;;;;;16.33;80.17;100435.78;1677349;84;21042;-69
2021/11/05 10:56:32;;;;;;;22.22;19.52;;;;;;;16.37;79.68;100440.20;1655497;85;21527;-68
2021/11/05 10:59:07;;;;;;;25.75;21.37;;;;;;;16.39;79.58;100422.47;1675955;84;21034;-68
2021/11/05 11:01:43;;;;;;;25.90;20.05;;;;;;;16.38;79.74;100404.16;1701527;82;21014;-70
2021/11/05 11:04:12;;;;;;;24.98;20.60;;;;;;;16.38;79.81;100392.06;1715742;83;21037;-67
2021/11/05 11:06:48;;;;;;;25.52;20.43;;;;;;;16.34;79.87;100397.59;1704345;83;21069;-72
2021/11/05 11:09:21;;;;;;;24.82;19.45;;;;;;;16.34;80.09;100403.79;1706132;83;21042;-67
2021/11/05 11:11:54;;;;;;;23.20;19.02;;;;;;;16.41;80.06;100414.48;1680789;82;21079;-67
2021/11/05 11:14:31;;;;;;;21.62;18.55;;;;;;;16.51;80.27;100422.02;1670288;84;21216;-67
2021/11/05 11:17:01;;;;;;;22.80;18.90;;;;;;;16.64;79.35;100413.78;1661393;84;21281;-74
2021/11/05 11:19:31;;;;;;;25.32;21.65;;;;;;;16.64;79.35;100413.78;1674024;84;21062;-68